createdAt,value
2019-06-27T00:01:22.541Z,85.72
2019-06-27T00:03:55.036Z,86.00
2019-06-27T00:06:28.124Z,86.11
2019-06-27T00:09:00.307Z,86.28
2019-06-27T00:11:33.069Z,86.28
2019-06-27T00:14:06.270Z,86.31
2019-06-27T00:16:40.293Z,86.33
2019-06-27T00:19:14.276Z,86.48
2019-06-27T00:21:48.492Z,86.58
2019-06-27T00:24:20.243Z,86.62
2019-06-27T00:26:57.216Z,86.73
2019-06-27T00:29:24.570Z,86.80
2019-06-27T00:31:57.190Z,87.07
2019-06-27T00:34:29.231Z,87.23
2019-06-27T00:37:03.306Z,87.53
2019-06-27T00:39:36.738Z,87.65
2019-06-27T00:42:09.236Z,87.75
2019-06-27T00:44:41.419Z,87.79
2019-06-27T00:47:14.366Z,88.02
2019-06-27T00:49:46.333Z,88.13
2019-06-27T00:52:19.424Z,88.19
2019-06-27T00:54:51.169Z,88.25
2019-06-27T00:57:24.526Z,88.49
2019-06-27T00:59:57.389Z,88.71
2019-06-27T01:02:29.461Z,88.85
2019-06-27T01:05:03.455Z,89.13
2019-06-27T01:07:36.447Z,89.18
2019-06-27T01:10:09.808Z,89.37
2019-06-27T01:12:42.400Z,89.70
2019-06-27T01:15:15.564Z,89.87
2019-06-27T01:17:48.504Z,90.01
2019-06-27T01:20:21.598Z,90.15
2019-06-27T01:22:54.468Z,90.31
2019-06-27T01:25:28.747Z,90.22
2019-06-27T01:28:01.594Z,90.21
2019-06-27T01:30:33.503Z,90.27
2019-06-27T01:33:06.743Z,91.12
2019-06-27T01:35:39.655Z,90.72
2019-06-27T01:38:12.493Z,91.11
2019-06-27T01:40:45.698Z,90.98
2019-06-27T01:43:18.561Z,91.13
2019-06-27T01:45:53.948Z,91.05
2019-06-27T01:48:29.322Z,91.28
2019-06-27T01:51:00.735Z,92.01
2019-06-27T01:53:33.755Z,91.94
2019-06-27T01:56:07.557Z,91.65
2019-06-27T01:58:39.669Z,91.64
2019-06-27T02:01:11.923Z,91.63
2019-06-27T02:03:44.601Z,91.54
2019-06-27T02:06:15.884Z,91.65
2019-06-27T02:08:48.737Z,91.59
2019-06-27T02:11:21.633Z,92.06
2019-06-27T02:13:54.813Z,92.48
2019-06-27T02:16:26.722Z,93.11
2019-06-27T02:18:58.007Z,92.86
2019-06-27T02:21:29.700Z,92.90
2019-06-27T02:24:02.884Z,92.52
2019-06-27T02:26:35.959Z,92.32
2019-06-27T02:29:09.991Z,92.42
2019-06-27T02:31:42.793Z,92.37
2019-06-27T02:34:15.740Z,92.42
2019-06-27T02:36:48.955Z,92.22
2019-06-27T02:39:21.934Z,91.93
2019-06-27T02:41:54.960Z,91.85
2019-06-27T02:44:28.007Z,91.71
2019-06-27T02:47:01.074Z,91.57
2019-06-27T02:49:32.956Z,91.44
2019-06-27T02:52:06.857Z,91.22
2019-06-27T02:54:39.015Z,90.97
2019-06-27T02:57:13.102Z,90.80
2019-06-27T02:59:44.974Z,90.75
2019-06-27T03:02:20.628Z,90.87
2019-06-27T03:04:52.010Z,91.09
2019-06-27T03:07:25.235Z,91.55
2019-06-27T03:09:58.164Z,91.30
2019-06-27T03:12:31.951Z,91.82
2019-06-27T03:15:04.154Z,91.71
2019-06-27T03:17:36.222Z,91.46
2019-06-27T03:20:12.180Z,91.50
2019-06-27T03:22:46.104Z,91.61
2019-06-27T03:25:19.172Z,91.53
2019-06-27T03:27:51.291Z,91.58
2019-06-27T03:30:23.096Z,92.46
2019-06-27T03:32:55.294Z,92.47
2019-06-27T03:35:27.225Z,91.98
2019-06-27T03:38:01.253Z,91.28
2019-06-27T03:40:34.352Z,91.06
2019-06-27T03:43:07.618Z,91.01
2019-06-27T03:45:40.178Z,90.72
2019-06-27T03:48:13.340Z,90.52
2019-06-27T03:50:46.437Z,90.00
2019-06-27T03:53:20.219Z,90.04
2019-06-27T03:55:51.840Z,89.83
2019-06-27T03:58:24.698Z,89.51
2019-06-27T04:00:58.443Z,89.44
2019-06-27T04:03:31.630Z,89.22
2019-06-27T04:06:04.366Z,89.01
2019-06-27T04:08:38.321Z,88.99
2019-06-27T04:11:10.708Z,89.02
2019-06-27T04:13:43.438Z,89.54
2019-06-27T04:16:16.462Z,89.46
2019-06-27T04:18:48.468Z,89.21
2019-06-27T04:21:22.563Z,88.83
2019-06-27T04:23:54.672Z,88.74
2019-06-27T04:26:28.504Z,88.60
2019-06-27T04:29:01.398Z,88.26
2019-06-27T04:31:43.911Z,88.01
2019-06-27T04:34:22.173Z,88.26
2019-06-27T04:36:58.454Z,87.85
2019-06-27T04:39:31.629Z,87.16
2019-06-27T04:42:05.759Z,85.92
2019-06-27T04:44:39.660Z,85.85
2019-06-27T04:47:13.500Z,85.81
2019-06-27T04:49:45.686Z,85.35
2019-06-27T04:52:18.410Z,85.25
2019-06-27T04:54:50.599Z,84.61
2019-06-27T04:57:29.099Z,83.64
2019-06-27T05:00:02.368Z,83.03
2019-06-27T05:02:34.706Z,81.98
2019-06-27T05:05:06.741Z,82.21
2019-06-27T05:07:38.815Z,81.00
2019-06-27T05:10:12.741Z,81.24
2019-06-27T05:12:45.390Z,81.53
2019-06-27T05:15:18.498Z,80.73
2019-06-27T05:17:51.905Z,80.19
2019-06-27T05:20:25.887Z,79.03
2019-06-27T05:22:57.162Z,79.68
2019-06-27T05:25:29.873Z,78.35
2019-06-27T05:28:02.015Z,77.96
2019-06-27T05:30:35.099Z,78.00
2019-06-27T05:33:06.986Z,77.00
2019-06-27T05:35:39.917Z,76.76
2019-06-27T05:38:13.988Z,76.92
2019-06-27T05:40:47.608Z,77.25
2019-06-27T05:43:19.908Z,75.85
2019-06-27T05:45:53.573Z,76.22
2019-06-27T05:48:25.837Z,75.95
2019-06-27T05:50:57.252Z,76.17
2019-06-27T05:53:29.113Z,75.84
2019-06-27T05:56:00.880Z,74.43
2019-06-27T05:58:33.891Z,74.56
2019-06-27T06:01:06.906Z,74.35
2019-06-27T06:03:40.001Z,74.63
2019-06-27T06:06:15.606Z,74.69
2019-06-27T06:08:47.855Z,73.89
2019-06-27T06:11:23.930Z,74.21
2019-06-27T06:13:55.909Z,73.46
2019-06-27T06:16:31.992Z,73.19
2019-06-27T06:19:03.983Z,74.36
2019-06-27T06:21:37.166Z,74.14
2019-06-27T06:24:09.277Z,72.18
2019-06-27T06:26:42.071Z,73.39
2019-06-27T06:29:16.035Z,73.65
2019-06-27T06:31:49.424Z,72.68
2019-06-27T06:34:22.018Z,72.28
2019-06-27T06:36:55.096Z,71.61
2019-06-27T06:39:28.005Z,70.40
2019-06-27T06:42:01.198Z,70.42
2019-06-27T06:44:33.339Z,68.90
2019-06-27T06:47:07.261Z,69.19
2019-06-27T06:49:40.200Z,68.45
2019-06-27T06:52:13.159Z,68.66
2019-06-27T06:54:45.114Z,66.76
2019-06-27T06:57:19.097Z,67.85
2019-06-27T06:59:51.366Z,67.85
2019-06-27T07:02:25.395Z,68.67
2019-06-27T07:04:58.313Z,70.10
2019-06-27T07:07:31.564Z,68.95
2019-06-27T07:10:04.505Z,68.16
2019-06-27T07:12:37.345Z,67.82
2019-06-27T07:15:10.589Z,68.27
2019-06-27T07:17:42.469Z,67.77
2019-06-27T07:20:16.591Z,67.18
2019-06-27T07:22:49.460Z,67.62
2019-06-27T07:25:22.439Z,68.82
2019-06-27T07:27:55.471Z,69.56
2019-06-27T07:30:28.558Z,69.09
2019-06-27T07:33:01.567Z,66.49
2019-06-27T07:35:34.338Z,68.31
2019-06-27T07:38:08.492Z,68.13
2019-06-27T07:40:40.305Z,68.88
2019-06-27T07:43:14.430Z,67.58
2019-06-27T07:45:47.453Z,67.62
2019-06-27T07:48:19.442Z,66.51
2019-06-27T07:50:52.062Z,66.21
2019-06-27T07:53:24.615Z,66.93
2019-06-27T07:55:55.914Z,65.49
2019-06-27T07:58:28.541Z,66.12
2019-06-27T08:01:01.634Z,66.46
2019-06-27T08:03:34.689Z,68.37
2019-06-27T08:06:07.429Z,67.08
2019-06-27T08:08:40.523Z,66.07
2019-06-27T08:11:13.466Z,65.14
2019-06-27T08:13:46.615Z,64.49
2019-06-27T08:16:18.550Z,67.38
2019-06-27T08:18:51.987Z,66.31
2019-06-27T08:21:23.894Z,63.79
2019-06-27T08:23:58.086Z,65.85
2019-06-27T08:26:29.482Z,65.63
2019-06-27T08:29:01.784Z,63.82
2019-06-27T08:31:50.555Z,64.09
2019-06-27T08:34:10.606Z,63.98
2019-06-27T08:36:42.764Z,63.00
2019-06-27T08:39:18.346Z,62.51
2019-06-27T08:41:49.618Z,59.90
2019-06-27T08:44:21.595Z,60.65
2019-06-27T08:46:52.857Z,60.06
2019-06-27T08:49:25.840Z,58.58
2019-06-27T08:51:58.968Z,59.52
2019-06-27T08:54:31.991Z,61.69
2019-06-27T08:57:04.900Z,61.28
2019-06-27T08:59:37.109Z,58.91
2019-06-27T09:02:09.557Z,60.15
2019-06-27T09:04:42.093Z,57.91
2019-06-27T09:07:13.885Z,57.90
2019-06-27T09:09:47.034Z,59.30
2019-06-27T09:12:20.043Z,59.51
2019-06-27T09:14:52.216Z,60.99
2019-06-27T09:17:25.908Z,57.22
2019-06-27T09:19:59.832Z,57.84
2019-06-27T09:22:31.957Z,59.23
2019-06-27T09:25:07.036Z,59.20
2019-06-27T09:27:42.622Z,57.58
2019-06-27T09:30:14.251Z,56.94
2019-06-27T09:32:47.165Z,56.02
2019-06-27T09:35:20.148Z,56.00
2019-06-27T09:37:52.033Z,54.49
2019-06-27T09:40:25.262Z,55.11
2019-06-27T09:42:58.135Z,54.00
2019-06-27T09:45:29.500Z,54.60
2019-06-27T09:48:01.028Z,54.79
2019-06-27T09:50:34.180Z,53.73
2019-06-27T09:53:07.226Z,54.20
2019-06-27T09:55:40.127Z,54.76
2019-06-27T09:58:13.120Z,52.90
2019-06-27T10:00:46.149Z,52.67
2019-06-27T10:03:19.083Z,53.44
2019-06-27T10:05:52.227Z,54.21
2019-06-27T10:08:25.237Z,53.27
2019-06-27T10:10:58.199Z,52.61
2019-06-27T10:13:30.196Z,51.98
2019-06-27T10:16:01.469Z,51.99
2019-06-27T10:18:34.316Z,53.57
2019-06-27T10:21:07.592Z,53.82
2019-06-27T10:23:40.291Z,52.35
2019-06-27T10:26:12.297Z,51.99
2019-06-27T10:28:43.609Z,49.54
2019-06-27T10:31:16.296Z,51.23
2019-06-27T10:33:48.311Z,49.74
2019-06-27T10:36:19.565Z,50.12
2019-06-27T10:38:51.480Z,47.13
2019-06-27T10:41:23.205Z,48.06
2019-06-27T10:43:58.564Z,47.63
2019-06-27T10:46:31.343Z,48.34
2019-06-27T10:49:04.335Z,47.08
2019-06-27T10:51:37.395Z,47.55
2019-06-27T10:54:10.446Z,47.67
2019-06-27T10:56:43.430Z,47.75
2019-06-27T10:59:16.493Z,49.74
2019-06-27T11:01:47.799Z,48.41
2019-06-27T11:04:19.491Z,48.68
2019-06-27T11:06:51.476Z,49.74
2019-06-27T11:09:25.455Z,48.80
2019-06-27T11:11:58.544Z,49.34
2019-06-27T11:14:31.539Z,48.55
2019-06-27T11:17:04.595Z,47.54
2019-06-27T11:19:51.500Z,48.37
2019-06-27T11:22:10.669Z,49.61
2019-06-27T11:24:43.490Z,49.72
2019-06-27T11:27:16.475Z,48.95
2019-06-27T11:29:48.547Z,47.65
2019-06-27T11:32:22.818Z,48.14
2019-06-27T11:34:55.656Z,47.34
2019-06-27T11:37:30.120Z,47.34
2019-06-27T11:40:01.791Z,48.35
2019-06-27T11:42:35.631Z,50.03
2019-06-27T11:45:08.347Z,48.61
2019-06-27T11:47:40.685Z,49.88
2019-06-27T11:50:13.893Z,51.08
2019-06-27T11:52:47.432Z,51.29
2019-06-27T11:55:20.772Z,51.28
2019-06-27T11:57:52.310Z,50.59
2019-06-27T12:00:26.758Z,52.30
2019-06-27T12:02:58.801Z,54.42
2019-06-27T12:05:31.700Z,55.90
2019-06-27T12:08:04.749Z,55.67
2019-06-27T12:10:38.803Z,58.06
2019-06-27T12:13:10.849Z,57.84
2019-06-27T12:15:44.946Z,57.65
2019-06-27T12:18:18.921Z,57.37
2019-06-27T12:20:52.480Z,58.23
2019-06-27T12:23:25.893Z,58.68
2019-06-27T12:25:58.781Z,58.57
2019-06-27T12:28:31.965Z,59.18
2019-06-27T12:31:19.243Z,60.46
2019-06-27T12:33:37.980Z,61.21
2019-06-27T12:36:10.869Z,62.25
2019-06-27T12:38:44.899Z,63.01
2019-06-27T12:41:16.958Z,62.89
2019-06-27T12:43:52.647Z,62.33
2019-06-27T12:46:26.079Z,63.56
2019-06-27T12:48:58.904Z,64.19
2019-06-27T12:51:32.007Z,64.14
2019-06-27T12:54:04.909Z,64.57
2019-06-27T12:56:38.029Z,64.99
2019-06-27T12:59:11.093Z,64.57
2019-06-27T13:01:45.382Z,65.22
2019-06-27T13:04:23.408Z,64.74
2019-06-27T13:06:51.059Z,64.91
2019-06-27T13:09:23.066Z,66.08
2019-06-27T13:11:56.153Z,66.23
2019-06-27T13:14:27.459Z,65.75
2019-06-27T13:16:59.115Z,66.45
2019-06-27T13:19:31.267Z,67.23
2019-06-27T13:22:04.175Z,67.33
2019-06-27T13:24:38.204Z,68.18
2019-06-27T13:27:11.209Z,68.31
2019-06-27T13:29:44.594Z,69.18
2019-06-27T13:32:17.387Z,68.66
2019-06-27T13:34:49.544Z,68.92
2019-06-27T13:37:22.309Z,69.44
2019-06-27T13:39:54.372Z,68.91
2019-06-27T13:42:26.309Z,69.73
2019-06-27T13:44:59.311Z,69.31
2019-06-27T13:47:30.580Z,69.83
2019-06-27T13:50:02.653Z,69.48
2019-06-27T13:52:36.391Z,69.39
2019-06-27T13:55:09.579Z,70.25
2019-06-27T13:57:41.374Z,70.74
2019-06-27T14:00:15.870Z,69.66
2019-06-27T14:02:47.273Z,70.51
2019-06-27T14:05:20.447Z,70.25
2019-06-27T14:07:52.500Z,69.06
2019-06-27T14:10:26.405Z,68.48
2019-06-27T14:12:59.531Z,68.56
2019-06-27T14:15:32.491Z,68.54
2019-06-27T14:18:05.832Z,67.18
2019-06-27T14:20:39.534Z,66.22
2019-06-27T14:23:12.699Z,65.66
2019-06-27T14:25:45.347Z,64.02
2019-06-27T14:28:18.641Z,64.02
2019-06-27T14:30:51.638Z,63.46
2019-06-27T14:33:24.200Z,63.00
2019-06-27T14:35:55.540Z,61.32
2019-06-27T14:38:28.656Z,60.26
2019-06-27T14:41:01.572Z,60.55
2019-06-27T14:43:37.832Z,60.59
2019-06-27T14:46:12.109Z,59.46
2019-06-27T14:48:56.900Z,59.95
2019-06-27T14:51:29.693Z,61.03
2019-06-27T14:54:02.717Z,61.86
2019-06-27T14:56:34.800Z,62.13
2019-06-27T14:59:06.098Z,61.68
2019-06-27T15:01:37.701Z,62.80
2019-06-27T15:04:10.718Z,62.54
2019-06-27T15:06:43.743Z,62.70
2019-06-27T15:09:17.806Z,62.74
2019-06-27T15:11:50.775Z,63.75
2019-06-27T15:14:22.786Z,65.01
2019-06-27T15:16:55.919Z,64.65
2019-06-27T15:19:27.814Z,64.66
2019-06-27T15:22:01.910Z,65.32
2019-06-27T15:24:37.442Z,67.62
2019-06-27T15:27:10.847Z,70.65
2019-06-27T15:29:43.808Z,72.29
2019-06-27T15:32:17.030Z,75.71
2019-06-27T15:34:49.942Z,79.33
2019-06-27T15:37:22.827Z,78.99
2019-06-27T15:39:55.910Z,79.94
2019-06-27T15:42:29.954Z,81.01
2019-06-27T15:45:02.106Z,82.79
2019-06-27T15:47:35.099Z,83.48
2019-06-27T15:50:08.691Z,83.77
2019-06-27T15:52:41.068Z,84.15
2019-06-27T15:55:14.292Z,85.27
2019-06-27T15:57:47.075Z,85.07
2019-06-27T16:00:21.141Z,85.59
2019-06-27T16:02:52.763Z,85.54
2019-06-27T16:05:26.309Z,85.80
2019-06-27T16:07:58.982Z,86.05
2019-06-27T16:10:32.156Z,86.43
2019-06-27T16:13:05.177Z,86.30
2019-06-27T16:15:37.437Z,86.33
2019-06-27T16:18:09.694Z,85.99
2019-06-27T16:20:43.100Z,86.02
2019-06-27T16:23:17.099Z,85.68
2019-06-27T16:25:51.121Z,84.55
2019-06-27T16:28:26.914Z,82.02
2019-06-27T16:30:58.101Z,81.32
2019-06-27T16:33:31.134Z,82.21
2019-06-27T16:36:05.224Z,81.74
2019-06-27T16:38:38.218Z,82.75
2019-06-27T16:41:11.265Z,82.68
2019-06-27T16:43:44.153Z,83.25
2019-06-27T16:46:17.275Z,82.11
2019-06-27T16:48:51.192Z,81.80
2019-06-27T16:51:23.262Z,82.05
2019-06-27T16:53:56.240Z,82.42
2019-06-27T16:56:29.723Z,82.30
2019-06-27T16:59:10.644Z,82.12
2019-06-27T17:01:58.430Z,82.73
2019-06-27T17:04:29.774Z,83.48
2019-06-27T17:07:02.430Z,83.81
2019-06-27T17:09:35.343Z,84.79
2019-06-27T17:12:08.292Z,85.23
2019-06-27T17:14:40.582Z,85.47
2019-06-27T17:17:12.982Z,85.49
2019-06-27T17:19:46.501Z,85.49
2019-06-27T17:22:18.388Z,84.67
2019-06-27T17:24:52.624Z,84.50
2019-06-27T17:27:24.324Z,83.92
2019-06-27T17:29:56.625Z,84.36
2019-06-27T17:32:30.517Z,84.09
2019-06-27T17:35:02.365Z,84.17
2019-06-27T17:37:34.764Z,84.01
2019-06-27T17:40:10.846Z,83.81
2019-06-27T17:42:42.584Z,83.67
2019-06-27T17:45:14.975Z,83.96
2019-06-27T17:47:47.526Z,83.76
2019-06-27T17:50:20.686Z,83.02
2019-06-27T17:52:52.838Z,82.56
2019-06-27T17:55:26.458Z,83.45
2019-06-27T17:57:59.446Z,84.20
2019-06-27T18:00:33.541Z,84.56
2019-06-27T18:03:06.869Z,85.38
2019-06-27T18:05:38.970Z,85.93
2019-06-27T18:08:10.635Z,86.58
2019-06-27T18:10:44.960Z,86.20
2019-06-27T18:13:17.683Z,86.43
2019-06-27T18:15:51.620Z,87.08
2019-06-27T18:18:23.659Z,87.78
2019-06-27T18:20:56.756Z,87.42
2019-06-27T18:23:30.671Z,87.86
2019-06-27T18:26:02.872Z,88.46
2019-06-27T18:28:36.800Z,89.16
2019-06-27T18:31:09.667Z,89.91
2019-06-27T18:33:43.890Z,90.89
2019-06-27T18:36:17.620Z,91.06
2019-06-27T18:38:50.880Z,91.39
2019-06-27T18:41:23.796Z,92.07
2019-06-27T18:44:09.544Z,92.12
2019-06-27T18:46:48.315Z,92.28
2019-06-27T18:49:20.806Z,92.22
2019-06-27T18:51:53.139Z,92.27
2019-06-27T18:54:26.490Z,92.80
2019-06-27T18:57:10.767Z,92.62
2019-06-27T18:59:42.939Z,92.21
2019-06-27T19:02:14.870Z,92.16
2019-06-27T19:05:00.885Z,92.56
2019-06-27T19:07:44.810Z,93.89
2019-06-27T19:10:09.560Z,93.65
2019-06-27T19:12:41.123Z,93.98
2019-06-27T19:15:14.246Z,94.70
2019-06-27T19:17:50.243Z,95.05
2019-06-27T19:20:36.896Z,95.56
2019-06-27T19:23:28.727Z,96.26
2019-06-27T19:26:02.237Z,96.02
2019-06-27T19:28:34.026Z,95.92
2019-06-27T19:31:08.883Z,95.96
2019-06-27T19:33:43.054Z,96.05
2019-06-27T19:36:16.193Z,96.46
2019-06-27T19:38:49.111Z,96.77
2019-06-27T19:41:24.766Z,97.09
2019-06-27T19:43:56.134Z,97.44
2019-06-27T19:46:28.064Z,98.88
2019-06-27T19:49:01.059Z,99.35
2019-06-27T19:51:33.285Z,99.06
2019-06-27T19:54:05.255Z,98.97
2019-06-27T19:56:37.113Z,99.28
2019-06-27T19:59:11.336Z,100.00
2019-06-27T20:01:44.151Z,100.00
2019-06-27T20:04:16.316Z,100.00
2019-06-27T20:06:48.735Z,100.00
2019-06-27T20:09:20.213Z,100.00
2019-06-27T20:11:52.231Z,100.00
2019-06-27T20:14:23.514Z,100.00
2019-06-27T20:16:57.319Z,100.00
2019-06-27T20:19:28.586Z,100.00
2019-06-27T20:22:02.500Z,100.00
2019-06-27T20:24:34.308Z,100.00
2019-06-27T20:27:08.686Z,100.00
2019-06-27T20:29:41.295Z,100.00
2019-06-27T20:32:15.487Z,100.00
2019-06-27T20:34:47.861Z,100.00
2019-06-27T20:37:21.353Z,100.00
2019-06-27T20:39:53.363Z,100.00
2019-06-27T20:42:24.786Z,100.00
2019-06-27T20:44:56.456Z,100.00
2019-06-27T20:47:29.412Z,100.00
2019-06-27T20:50:05.271Z,100.00
2019-06-27T20:52:39.564Z,100.00
2019-06-27T20:55:11.571Z,100.00
2019-06-27T20:57:44.522Z,100.00
2019-06-27T21:00:18.741Z,100.00
2019-06-27T21:02:50.553Z,100.00
2019-06-27T21:05:24.515Z,100.00
2019-06-27T21:07:56.441Z,100.00
2019-06-27T21:10:30.552Z,100.00
2019-06-27T21:13:02.522Z,100.00
2019-06-27T21:15:33.828Z,100.00
2019-06-27T21:18:05.679Z,100.00
2019-06-27T21:20:37.506Z,100.00
2019-06-27T21:23:12.591Z,100.00
2019-06-27T21:25:45.148Z,100.00
2019-06-27T21:28:18.855Z,100.00
2019-06-27T21:30:54.180Z,100.00
2019-06-27T21:33:27.179Z,100.00
2019-06-27T21:35:59.704Z,100.00
2019-06-27T21:38:31.584Z,100.00
2019-06-27T21:41:07.266Z,100.00
2019-06-27T21:43:39.767Z,100.00
2019-06-27T21:46:11.865Z,100.00
2019-06-27T21:48:43.812Z,100.00
2019-06-27T21:51:17.670Z,100.00
2019-06-27T21:53:50.795Z,100.00
2019-06-27T21:56:23.752Z,100.00
2019-06-27T21:58:56.806Z,100.00
2019-06-27T22:01:28.292Z,100.00
2019-06-27T22:03:59.907Z,100.00
2019-06-27T22:06:31.909Z,100.00
2019-06-27T22:09:20.084Z,100.00
2019-06-27T22:11:41.948Z,100.00
2019-06-27T22:14:16.285Z,100.00
2019-06-27T22:16:51.064Z,100.00
2019-06-27T22:19:23.361Z,100.00
2019-06-27T22:21:56.988Z,100.00
2019-06-27T22:24:28.883Z,100.00
2019-06-27T22:27:02.862Z,100.00
2019-06-27T22:29:34.953Z,100.00
2019-06-27T22:32:06.221Z,100.00
2019-06-27T22:34:39.223Z,100.00
2019-06-27T22:37:12.795Z,100.00
2019-06-27T22:40:01.975Z,100.00
2019-06-27T22:42:53.563Z,100.00
2019-06-27T22:45:44.467Z,98.46
2019-06-27T22:48:17.065Z,95.82
2019-06-27T22:51:22.343Z,94.68
2019-06-27T22:53:58.251Z,95.31
2019-06-27T22:56:30.124Z,96.38
2019-06-27T22:59:03.102Z,97.04
2019-06-27T23:01:36.236Z,97.56
2019-06-27T23:04:09.067Z,97.86
2019-06-27T23:06:42.126Z,98.58
2019-06-27T23:09:15.052Z,98.29
2019-06-27T23:11:49.632Z,98.58
2019-06-27T23:14:21.689Z,99.05
2019-06-27T23:16:53.571Z,98.69
2019-06-27T23:19:27.251Z,98.92
2019-06-27T23:22:00.289Z,98.51
2019-06-27T23:24:32.315Z,99.26
2019-06-27T23:27:04.491Z,99.34
2019-06-27T23:29:36.334Z,99.59
2019-06-27T23:32:09.344Z,97.68
2019-06-27T23:34:41.632Z,97.68
2019-06-27T23:37:14.915Z,97.42
2019-06-27T23:39:46.211Z,96.98
2019-06-27T23:42:18.340Z,95.75
2019-06-27T23:44:50.274Z,94.86
2019-06-27T23:47:21.878Z,91.32
2019-06-27T23:49:53.331Z,90.78
2019-06-27T23:52:24.745Z,90.68
2019-06-27T23:54:57.692Z,91.19
2019-06-27T23:57:30.525Z,90.66
